Time;durP1;ratioP1;P1;durP2;ratioP2;P2;SDS_P1;SDS_P2;PMS_P1;PMS_P2;Temp;Humidity;BMP_temperature;BMP_pressure;BME280_temperature;BME280_humidity;BME280_pressure;Samples;Min_cycle;Max_cycle;Signal;HPM_P1;HPM_P2
2023/06/16 00:01:04;;;;;;;;;;;;;;;15.36;81.27;95926.59;5065909;28;19924;-71
2023/06/16 00:03:33;;;;;;;;;;;;;;;15.27;81.12;95922.09;5061840;28;19924;-70
2023/06/16 00:06:03;;;;;;;;;;;;;;;15.27;81.84;95925.53;5070452;28;20026;-70
2023/06/16 00:08:30;;;;;;;;;;;;;;;15.36;81.02;95921.38;5068426;28;19931;-70
2023/06/16 00:10:56;;;;;;;;;;;;;;;15.47;80.95;95923.97;5068558;28;19955;-70
2023/06/16 00:13:24;;;;;;;;;;;;;;;15.52;81.23;95924.44;5069746;28;19928;-70
2023/06/16 00:15:50;;;;;;;;;;;;;;;15.41;81.02;95934.88;5072671;28;19932;-70
2023/06/16 00:18:17;;;;;;;;;;;;;;;15.51;83.75;95928.00;5072088;28;19928;-70
2023/06/16 00:20:43;;;;;;;;;;;;;;;15.42;85.73;95918.28;5068808;28;20023;-70
2023/06/16 00:23:16;;;;;;;;;;;;;;;15.20;87.38;95926.97;5070591;28;19978;-70
2023/06/16 00:25:42;;;;;;;;;;;;;;;15.06;88.51;95927.25;5062411;28;19935;-70
2023/06/16 00:28:08;;;;;;;;;;;;;;;14.91;89.51;95922.28;5075575;28;19978;-70
2023/06/16 00:30:36;;;;;;;;;;;;;;;14.88;88.76;95922.50;5058891;28;19924;-70
2023/06/16 00:33:02;;;;;;;;;;;;;;;14.91;87.35;95921.44;5068603;28;19954;-70
2023/06/16 00:35:29;;;;;;;;;;;;;;;14.88;87.85;95911.25;5070102;28;20015;-70
2023/06/16 00:37:55;;;;;;;;;;;;;;;14.86;87.77;95913.94;5070174;28;19991;-70
2023/06/16 00:40:21;;;;;;;;;;;;;;;14.87;88.49;95906.97;5061149;28;19933;-70
2023/06/16 00:42:47;;;;;;;;;;;;;;;14.80;89.98;95914.44;5066899;28;19932;-71
2023/06/16 00:45:14;;;;;;;;;;;;;;;14.69;89.73;95912.66;5068947;28;19928;-71
2023/06/16 00:47:41;;;;;;;;;;;;;;;14.67;90.81;95911.94;5070317;28;19981;-71
2023/06/16 00:50:08;;;;;;;;;;;;;;;14.66;90.13;95906.84;5066309;28;19932;-71
2023/06/16 00:52:36;;;;;;;;;;;;;;;14.64;89.79;95909.56;5072317;28;19924;-71
2023/06/16 00:55:02;;;;;;;;;;;;;;;14.63;88.66;95907.09;5065727;28;19935;-71
2023/06/16 00:57:29;;;;;;;;;;;;;;;14.66;88.50;95904.25;5071082;28;19931;-71
2023/06/16 00:59:55;;;;;;;;;;;;;;;14.75;88.31;95901.75;5066942;28;19924;-71
2023/06/16 01:02:22;;;;;;;;;;;;;;;14.77;87.29;95904.25;5063669;28;19932;-71
2023/06/16 01:04:51;;;;;;;;;;;;;;;14.74;87.66;95905.31;5065314;28;19955;-71
2023/06/16 01:07:21;;;;;;;;;;;;;;;14.67;87.30;95905.91;5071241;28;19932;-71
2023/06/16 01:09:51;;;;;;;;;;;;;;;14.64;87.16;95908.75;5071406;28;19972;-70
2023/06/16 01:12:23;;;;;;;;;;;;;;;14.65;87.14;95906.03;5072416;28;19951;-70
2023/06/16 01:14:53;;;;;;;;;;;;;;;14.64;87.54;95909.56;5073277;28;20021;-70
2023/06/16 01:17:21;;;;;;;;;;;;;;;14.49;88.91;95905.50;5067120;28;19928;-70
2023/06/16 01:19:53;;;;;;;;;;;;;;;14.55;87.58;95902.47;5072070;28;19986;-70
2023/06/16 01:22:29;;;;;;;;;;;;;;;14.40;89.02;95904.44;5071023;28;19965;-70
2023/06/16 01:24:57;;;;;;;;;;;;;;;14.25;90.06;95909.03;5066533;28;20379;-70
2023/06/16 01:27:24;;;;;;;;;;;;;;;14.15;90.18;95902.84;5073421;28;19928;-70
2023/06/16 01:29:51;;;;;;;;;;;;;;;13.91;92.43;95904.69;5069775;28;20297;-70
2023/06/16 01:32:20;;;;;;;;;;;;;;;13.82;92.66;95900.97;5071675;28;19935;-70
2023/06/16 01:34:47;;;;;;;;;;;;;;;13.75;92.51;95908.38;5066492;28;19925;-70
2023/06/16 01:37:15;;;;;;;;;;;;;;;13.63;94.04;95904.06;5071686;28;19928;-70
2023/06/16 01:39:41;;;;;;;;;;;;;;;13.45;96.21;95906.22;5073490;28;19932;-70
2023/06/16 01:42:11;;;;;;;;;;;;;;;13.42;96.64;95911.69;5079277;28;20394;-69
2023/06/16 01:44:40;;;;;;;;;;;;;;;13.36;97.08;95906.09;5069100;28;22270;-70
2023/06/16 01:47:06;;;;;;;;;;;;;;;13.48;95.76;95908.63;5069880;28;20350;-70
2023/06/16 01:49:33;;;;;;;;;;;;;;;13.46;96.20;95907.06;5069470;28;19925;-70
2023/06/16 01:51:59;;;;;;;;;;;;;;;13.56;94.77;95906.28;5071392;28;19959;-70
2023/06/16 01:54:25;;;;;;;;;;;;;;;13.59;94.63;95905.25;5072387;28;20306;-70
2023/06/16 01:56:52;;;;;;;;;;;;;;;13.52;95.56;95906.63;5071035;28;19932;-70
2023/06/16 01:59:19;;;;;;;;;;;;;;;13.45;96.51;95905.41;5067284;28;19932;-70
2023/06/16 02:01:49;;;;;;;;;;;;;;;13.37;97.19;95912.94;5064793;28;19924;-70
2023/06/16 02:04:16;;;;;;;;;;;;;;;13.38;96.89;95912.00;5072933;28;19928;-70
2023/06/16 02:06:44;;;;;;;;;;;;;;;13.35;97.06;95902.66;5065032;28;19925;-70
2023/06/16 02:09:13;;;;;;;;;;;;;;;13.39;96.71;95905.88;5070126;28;19931;-70
2023/06/16 02:11:39;;;;;;;;;;;;;;;13.32;97.76;95908.91;5070710;28;19931;-70
2023/06/16 02:14:05;;;;;;;;;;;;;;;13.34;97.28;95908.78;5067011;28;19931;-70
2023/06/16 02:16:37;;;;;;;;;;;;;;;13.29;98.22;95901.31;5072892;28;19977;-71
2023/06/16 02:19:03;;;;;;;;;;;;;;;13.25;98.63;95904.25;5066572;28;19964;-71
2023/06/16 02:21:30;;;;;;;;;;;;;;;13.15;99.53;95906.63;5072301;28;19942;-70
2023/06/16 02:23:56;;;;;;;;;;;;;;;13.17;98.42;95904.75;5064818;28;20287;-70
2023/06/16 02:26:24;;;;;;;;;;;;;;;13.06;98.60;95907.28;5070490;28;19929;-70
2023/06/16 02:28:50;;;;;;;;;;;;;;;12.98;100.00;95907.84;5072173;28;19924;-70
2023/06/16 02:31:18;;;;;;;;;;;;;;;12.83;100.00;95907.13;5068570;28;20568;-71
2023/06/16 02:33:46;;;;;;;;;;;;;;;12.79;100.00;95907.44;5070543;28;19924;-70
2023/06/16 02:36:13;;;;;;;;;;;;;;;12.78;100.00;95908.38;5072206;28;19928;-70
2023/06/16 02:38:39;;;;;;;;;;;;;;;12.67;100.00;95911.72;5072211;28;19924;-70
2023/06/16 02:41:06;;;;;;;;;;;;;;;12.64;100.00;95913.69;5066185;28;19924;-70
2023/06/16 02:43:32;;;;;;;;;;;;;;;12.46;100.00;95907.97;5063244;28;19974;-70
2023/06/16 02:45:59;;;;;;;;;;;;;;;12.43;100.00;95909.03;5070696;28;19924;-70
2023/06/16 02:48:25;;;;;;;;;;;;;;;12.41;100.00;95904.88;5067904;28;20011;-70
2023/06/16 02:50:53;;;;;;;;;;;;;;;12.38;100.00;95905.91;5069424;28;20290;-70
2023/06/16 02:53:19;;;;;;;;;;;;;;;12.35;100.00;95914.75;5071666;28;19924;-70
2023/06/16 02:55:46;;;;;;;;;;;;;;;12.33;100.00;95914.00;5066807;28;20007;-70
2023/06/16 02:58:12;;;;;;;;;;;;;;;12.29;100.00;95917.75;5071444;28;19974;-70
2023/06/16 03:00:39;;;;;;;;;;;;;;;12.26;100.00;95907.56;5063482;28;19932;-70
2023/06/16 03:03:05;;;;;;;;;;;;;;;12.21;100.00;95899.25;5069946;28;19928;-70
2023/06/16 03:05:33;;;;;;;;;;;;;;;12.19;100.00;95910.69;5070465;28;19928;-70
2023/06/16 03:08:01;;;;;;;;;;;;;;;12.20;100.00;95905.41;5070333;28;19971;-71
2023/06/16 03:10:27;;;;;;;;;;;;;;;12.14;100.00;95903.19;5071585;28;19928;-70
2023/06/16 03:12:53;;;;;;;;;;;;;;;12.18;100.00;95914.22;5071098;28;19979;-70
2023/06/16 03:15:23;;;;;;;;;;;;;;;12.23;100.00;95901.75;5070126;28;19928;-70
2023/06/16 03:17:49;;;;;;;;;;;;;;;12.26;100.00;95904.97;5062990;28;19924;-70
2023/06/16 03:20:16;;;;;;;;;;;;;;;12.27;100.00;95898.84;5071179;28;20378;-70
2023/06/16 03:22:42;;;;;;;;;;;;;;;12.32;100.00;95908.94;5067679;28;19935;-70
2023/06/16 03:25:10;;;;;;;;;;;;;;;12.27;100.00;95913.59;5068061;28;20390;-70
2023/06/16 03:27:40;;;;;;;;;;;;;;;12.27;100.00;95909.25;5070640;28;19928;-70
2023/06/16 03:30:07;;;;;;;;;;;;;;;12.19;100.00;95914.09;5071434;28;19928;-70
2023/06/16 03:32:34;;;;;;;;;;;;;;;12.25;100.00;95912.88;5071154;28;20011;-70
2023/06/16 03:35:02;;;;;;;;;;;;;;;12.23;100.00;95912.97;5066285;28;19924;-70
2023/06/16 03:37:28;;;;;;;;;;;;;;;12.19;100.00;95918.47;5068986;28;19932;-70
2023/06/16 03:39:54;;;;;;;;;;;;;;;12.15;100.00;95923.03;5070993;28;19986;-70
2023/06/16 03:42:22;;;;;;;;;;;;;;;12.11;100.00;95912.00;5067123;28;20382;-70
2023/06/16 03:44:49;;;;;;;;;;;;;;;12.01;100.00;95917.91;5067050;28;19940;-70
2023/06/16 03:47:16;;;;;;;;;;;;;;;12.01;100.00;95917.91;5063101;28;20402;-70
2023/06/16 03:49:42;;;;;;;;;;;;;;;11.91;100.00;95911.69;5070584;28;19928;-70
2023/06/16 03:52:08;;;;;;;;;;;;;;;11.77;100.00;95909.97;5070876;28;19924;-70
2023/06/16 03:54:36;;;;;;;;;;;;;;;11.83;100.00;95907.84;5067739;28;19924;-70
2023/06/16 03:57:03;;;;;;;;;;;;;;;11.89;100.00;95916.13;5066681;28;19925;-70
2023/06/16 03:59:30;;;;;;;;;;;;;;;11.85;100.00;95920.69;5070774;28;20300;-70
2023/06/16 04:01:57;;;;;;;;;;;;;;;11.74;100.00;95925.72;5067373;28;19944;-70
2023/06/16 04:04:25;;;;;;;;;;;;;;;11.81;100.00;95916.59;5069240;28;19928;-70
2023/06/16 04:06:51;;;;;;;;;;;;;;;11.85;100.00;95918.09;5071129;28;19935;-70
2023/06/16 04:09:17;;;;;;;;;;;;;;;11.86;100.00;95925.81;5067705;28;19977;-70
2023/06/16 04:11:44;;;;;;;;;;;;;;;11.92;100.00;95927.16;5067381;28;20525;-70
2023/06/16 04:14:10;;;;;;;;;;;;;;;11.89;100.00;95918.72;5066312;28;19970;-70
2023/06/16 04:16:40;;;;;;;;;;;;;;;12.00;100.00;95932.66;5070959;28;19932;-70
2023/06/16 04:19:06;;;;;;;;;;;;;;;12.05;100.00;95927.16;5065800;28;19971;-71
2023/06/16 04:21:33;;;;;;;;;;;;;;;12.20;100.00;95925.31;5070353;28;19925;-71
2023/06/16 04:24:00;;;;;;;;;;;;;;;12.26;100.00;95923.16;5067494;28;19928;-70
2023/06/16 04:26:28;;;;;;;;;;;;;;;12.29;100.00;95928.13;5073756;28;19928;-70
2023/06/16 04:28:55;;;;;;;;;;;;;;;12.30;100.00;95934.97;5066010;28;19924;-70
2023/06/16 04:31:22;;;;;;;;;;;;;;;12.39;100.00;95932.72;5070384;28;20057;-70
2023/06/16 04:33:49;;;;;;;;;;;;;;;12.49;100.00;95929.38;5072789;28;19932;-70
2023/06/16 04:36:17;;;;;;;;;;;;;;;12.56;100.00;95925.44;5074849;28;19924;-70
2023/06/16 04:38:43;;;;;;;;;;;;;;;12.57;100.00;95924.53;5068160;28;20019;-70
2023/06/16 04:41:10;;;;;;;;;;;;;;;12.64;100.00;95932.69;5060115;28;19931;-70
2023/06/16 04:43:36;;;;;;;;;;;;;;;12.70;100.00;95934.88;5060771;28;19971;-71
2023/06/16 04:46:02;;;;;;;;;;;;;;;12.82;100.00;95928.84;5070119;28;19943;-71
2023/06/16 04:48:29;;;;;;;;;;;;;;;12.97;100.00;95929.53;5070074;28;19932;-71
2023/06/16 04:50:57;;;;;;;;;;;;;;;13.07;100.00;95933.16;5067966;28;19956;-70
2023/06/16 04:53:23;;;;;;;;;;;;;;;13.14;100.00;95930.97;5061758;28;20401;-70
2023/06/16 04:55:49;;;;;;;;;;;;;;;13.24;100.00;95933.81;5062957;28;19925;-70
2023/06/16 04:58:15;;;;;;;;;;;;;;;13.42;100.00;95931.63;5066966;28;20382;-70
2023/06/16 05:00:42;;;;;;;;;;;;;;;13.55;100.00;95935.03;5063629;28;19940;-70
2023/06/16 05:03:09;;;;;;;;;;;;;;;13.72;100.00;95932.06;5066810;28;19929;-70
2023/06/16 05:05:35;;;;;;;;;;;;;;;13.82;100.00;95942.59;5070129;28;20348;-70
2023/06/16 05:08:03;;;;;;;;;;;;;;;13.89;100.00;95932.59;5067622;28;19982;-70
2023/06/16 05:10:29;;;;;;;;;;;;;;;14.06;100.00;95926.16;5069361;28;19924;-71
2023/06/16 05:12:57;;;;;;;;;;;;;;;14.03;99.97;95924.59;5062854;28;19934;-71
2023/06/16 05:15:24;;;;;;;;;;;;;;;14.04;100.00;95928.84;5064997;28;20439;-70
2023/06/16 05:17:50;;;;;;;;;;;;;;;14.22;99.67;95926.66;5064815;28;20446;-70
2023/06/16 05:20:16;;;;;;;;;;;;;;;14.12;100.00;95923.06;5064422;28;19932;-68
2023/06/16 05:22:43;;;;;;;;;;;;;;;14.10;100.00;95927.56;5069277;28;19931;-68
2023/06/16 05:25:10;;;;;;;;;;;;;;;13.92;100.00;95930.59;5066695;28;19929;-68
2023/06/16 05:27:37;;;;;;;;;;;;;;;14.02;100.00;95920.34;5067456;28;19935;-68
2023/06/16 05:30:03;;;;;;;;;;;;;;;14.29;99.73;95923.47;5064837;28;19928;-68
2023/06/16 05:32:29;;;;;;;;;;;;;;;14.39;96.75;95926.22;5068003;28;19931;-68
2023/06/16 05:34:56;;;;;;;;;;;;;;;14.34;96.86;95927.50;5072672;28;20390;-68
2023/06/16 05:37:23;;;;;;;;;;;;;;;14.55;97.98;95928.53;5066642;28;19928;-68
2023/06/16 05:39:49;;;;;;;;;;;;;;;14.67;94.38;95930.19;5072282;28;20545;-68
2023/06/16 05:42:17;;;;;;;;;;;;;;;14.73;93.85;95931.50;5070544;28;20310;-68
2023/06/16 05:44:44;;;;;;;;;;;;;;;14.58;94.00;95924.88;5072101;28;19990;-68
2023/06/16 05:47:11;;;;;;;;;;;;;;;14.55;94.35;95925.09;5067609;28;19925;-68
2023/06/16 05:49:38;;;;;;;;;;;;;;;14.74;94.31;95926.16;5070019;28;20334;-68
2023/06/16 05:52:05;;;;;;;;;;;;;;;14.83;92.33;95934.22;5065159;28;19982;-68
2023/06/16 05:54:31;;;;;;;;;;;;;;;14.84;91.92;95934.13;5072725;28;19929;-67
2023/06/16 05:56:58;;;;;;;;;;;;;;;14.74;93.40;95933.16;5068995;28;20186;-70
2023/06/16 05:59:26;;;;;;;;;;;;;;;14.84;92.98;95931.50;5064625;28;19978;-70
2023/06/16 06:01:53;;;;;;;;;;;;;;;15.09;91.59;95935.66;5072452;28;20309;-71
2023/06/16 06:04:21;;;;;;;;;;;;;;;15.32;90.53;95935.63;5077659;28;20529;-71
2023/06/16 06:06:48;;;;;;;;;;;;;;;15.65;89.23;95943.41;5071769;28;20057;-71
2023/06/16 06:09:14;;;;;;;;;;;;;;;15.63;87.51;95941.84;5071244;28;20271;-71
2023/06/16 06:11:40;;;;;;;;;;;;;;;15.79;87.31;95928.41;5068630;28;19975;-71
2023/06/16 06:14:07;;;;;;;;;;;;;;;16.08;88.40;95936.47;5070315;28;19951;-71
2023/06/16 06:16:34;;;;;;;;;;;;;;;16.17;85.79;95938.34;5066941;28;20282;-71
2023/06/16 06:19:00;;;;;;;;;;;;;;;16.19;84.94;95942.47;5063679;28;20401;-71
2023/06/16 06:21:27;;;;;;;;;;;;;;;16.42;85.00;95937.13;5072663;28;20333;-71
2023/06/16 06:23:53;;;;;;;;;;;;;;;16.59;83.77;95949.63;5071924;28;19947;-71
2023/06/16 06:26:20;;;;;;;;;;;;;;;16.67;82.89;95946.34;5069893;28;20018;-71
2023/06/16 06:28:46;;;;;;;;;;;;;;;16.66;83.12;95949.94;5068731;28;19928;-71
2023/06/16 06:31:12;;;;;;;;;;;;;;;17.00;81.76;95953.16;5069037;28;19929;-71
2023/06/16 06:33:40;;;;;;;;;;;;;;;17.39;82.51;95958.53;5068346;28;19929;-71
2023/06/16 06:36:07;;;;;;;;;;;;;;;17.56;79.48;95952.66;5072495;28;20344;-71
2023/06/16 06:38:33;;;;;;;;;;;;;;;17.82;79.62;95966.09;5069963;28;20377;-71
2023/06/16 06:41:00;;;;;;;;;;;;;;;18.20;80.58;95958.38;5070396;28;19928;-72
2023/06/16 06:43:26;;;;;;;;;;;;;;;18.36;76.13;95963.91;5063054;28;19928;-71
2023/06/16 06:45:53;;;;;;;;;;;;;;;18.28;75.55;95962.00;5072099;28;19925;-71
2023/06/16 06:48:19;;;;;;;;;;;;;;;18.51;76.10;95962.53;5066597;28;20279;-71
2023/06/16 06:50:48;;;;;;;;;;;;;;;18.96;76.74;95958.44;5066960;28;19932;-71
2023/06/16 06:53:15;;;;;;;;;;;;;;;19.34;73.89;95962.69;5067239;28;19924;-71
2023/06/16 06:55:41;;;;;;;;;;;;;;;19.61;70.71;95963.66;5071545;28;19932;-71
2023/06/16 06:58:07;;;;;;;;;;;;;;;19.94;71.54;95960.44;5069242;28;20386;-72
2023/06/16 07:00:33;;;;;;;;;;;;;;;20.25;72.00;95967.97;5067694;28;19948;-71
2023/06/16 07:03:00;;;;;;;;;;;;;;;20.48;71.14;95969.13;5070758;28;19982;-71
2023/06/16 07:05:26;;;;;;;;;;;;;;;20.78;72.58;95969.72;5071324;28;20036;-71
2023/06/16 07:07:54;;;;;;;;;;;;;;;21.03;68.27;95971.53;5063712;28;20408;-72
2023/06/16 07:10:20;;;;;;;;;;;;;;;21.14;63.42;95977.50;5071213;28;19924;-72
2023/06/16 07:12:46;;;;;;;;;;;;;;;21.19;64.50;95975.22;5070239;28;19935;-72
2023/06/16 07:15:12;;;;;;;;;;;;;;;21.52;66.48;95981.50;5071770;28;19970;-72
2023/06/16 07:17:39;;;;;;;;;;;;;;;21.65;65.73;95984.50;5061330;28;19978;-68
2023/06/16 07:20:06;;;;;;;;;;;;;;;21.74;60.54;95985.38;5067084;28;19925;-71
2023/06/16 07:22:32;;;;;;;;;;;;;;;22.26;62.81;95982.53;5069346;28;19979;-72
2023/06/16 07:25:00;;;;;;;;;;;;;;;22.36;52.18;95983.22;5067592;28;20331;-72
2023/06/16 07:27:26;;;;;;;;;;;;;;;22.14;52.14;95983.84;5067389;28;19936;-71
2023/06/16 07:29:52;;;;;;;;;;;;;;;21.97;53.31;95985.59;5066562;28;20374;-71
2023/06/16 07:32:19;;;;;;;;;;;;;;;21.72;44.16;95992.59;5070978;28;20276;-72
2023/06/16 07:34:46;;;;;;;;;;;;;;;21.52;41.52;95988.59;5071266;28;19932;-72
2023/06/16 07:37:13;;;;;;;;;;;;;;;21.56;41.12;95977.56;5070817;28;19978;-74
2023/06/16 07:39:40;;;;;;;;;;;;;;;21.58;43.27;95987.94;5069408;28;19924;-71
2023/06/16 07:42:07;;;;;;;;;;;;;;;21.65;43.02;95986.31;5067503;28;19932;-72
2023/06/16 07:44:34;;;;;;;;;;;;;;;22.03;39.96;95990.22;5069048;28;19925;-71
2023/06/16 07:47:00;;;;;;;;;;;;;;;22.05;38.99;95985.59;5070778;28;19932;-71
2023/06/16 07:49:29;;;;;;;;;;;;;;;22.42;39.61;95990.47;5070054;28;19928;-71
2023/06/16 07:51:55;;;;;;;;;;;;;;;22.64;40.66;95986.34;5068339;28;19924;-71
2023/06/16 07:54:21;;;;;;;;;;;;;;;22.33;38.34;95982.72;5070221;28;20413;-72
2023/06/16 07:56:48;;;;;;;;;;;;;;;22.54;38.53;95977.75;5069790;28;20309;-72
2023/06/16 07:59:15;;;;;;;;;;;;;;;22.90;36.86;95980.03;5064983;28;20336;-72
2023/06/16 08:01:42;;;;;;;;;;;;;;;23.08;37.15;95977.25;5070029;28;19928;-73
2023/06/16 08:04:08;;;;;;;;;;;;;;;22.82;36.34;95983.53;5069814;28;20326;-72
2023/06/16 08:06:35;;;;;;;;;;;;;;;22.81;36.42;95976.59;5067306;28;20346;-71
2023/06/16 08:09:02;;;;;;;;;;;;;;;23.01;35.26;95984.19;5064106;28;19929;-71
2023/06/16 08:11:29;;;;;;;;;;;;;;;22.86;35.18;95979.56;5063540;28;20677;-74
2023/06/16 08:13:55;;;;;;;;;;;;;;;23.40;39.77;95978.97;5071687;28;19932;-73
2023/06/16 08:16:23;;;;;;;;;;;;;;;23.01;34.46;95982.38;5071195;28;19928;-72
2023/06/16 08:18:50;;;;;;;;;;;;;;;23.03;36.09;95974.28;5066281;28;19929;-72
2023/06/16 08:21:16;;;;;;;;;;;;;;;23.33;34.88;95980.66;5071559;28;19980;-72
2023/06/16 08:23:43;;;;;;;;;;;;;;;23.33;36.05;95975.38;5072586;28;19987;-72
2023/06/16 08:26:09;;;;;;;;;;;;;;;23.70;36.42;95972.09;5069767;28;19929;-72
2023/06/16 08:28:41;;;;;;;;;;;;;;;23.74;36.08;95968.13;5071123;28;20287;-72
2023/06/16 08:31:07;;;;;;;;;;;;;;;23.42;34.03;95976.97;5060929;28;20374;-70
2023/06/16 08:33:35;;;;;;;;;;;;;;;23.07;33.83;95972.97;5066270;28;19925;-70
2023/06/16 08:36:01;;;;;;;;;;;;;;;22.70;31.78;95974.31;5060878;28;19932;-70
2023/06/16 08:38:28;;;;;;;;;;;;;;;22.38;34.49;95975.94;5059420;28;19975;-70
2023/06/16 08:40:54;;;;;;;;;;;;;;;23.19;35.00;95980.34;5066933;28;20035;-70
2023/06/16 08:43:22;;;;;;;;;;;;;;;23.71;35.94;95973.75;5069073;28;20419;-70
2023/06/16 08:45:49;;;;;;;;;;;;;;;23.83;32.40;95976.81;5070418;28;20503;-70
2023/06/16 08:48:16;;;;;;;;;;;;;;;23.91;31.72;95976.78;5060276;28;19933;-70
2023/06/16 08:50:44;;;;;;;;;;;;;;;23.43;33.51;95976.81;5069128;28;19943;-70
2023/06/16 08:53:12;;;;;;;;;;;;;;;23.33;31.57;95967.44;5068404;28;19924;-70
2023/06/16 08:55:40;;;;;;;;;;;;;;;23.09;31.93;95971.78;5068690;28;19925;-70
2023/06/16 08:58:08;;;;;;;;;;;;;;;23.58;35.79;95965.50;5068400;28;19956;-68
2023/06/16 09:00:34;;;;;;;;;;;;;;;23.79;36.89;95967.59;5061426;28;19928;-72
2023/06/16 09:03:01;;;;;;;;;;;;;;;23.84;32.79;95966.09;5062385;28;20457;-71
2023/06/16 09:05:27;;;;;;;;;;;;;;;24.18;33.15;95964.88;5064897;28;19928;-73
2023/06/16 09:07:56;;;;;;;;;;;;;;;23.72;31.57;95963.97;5070817;28;19924;-73
2023/06/16 09:10:22;;;;;;;;;;;;;;;23.50;32.33;95968.19;5073418;28;19948;-70
2023/06/16 09:12:52;;;;;;;;;;;;;;;23.32;31.98;95971.88;5064236;28;20272;-70
2023/06/16 09:15:18;;;;;;;;;;;;;;;22.91;33.14;95964.06;5071041;28;19936;-71
2023/06/16 09:17:48;;;;;;;;;;;;;;;23.28;32.92;95972.38;5072743;28;19928;-70
2023/06/16 09:20:15;;;;;;;;;;;;;;;22.86;32.12;95971.63;5071879;28;19924;-72
2023/06/16 09:22:41;;;;;;;;;;;;;;;23.13;32.40;95970.44;5070568;28;19974;-70
2023/06/16 09:25:12;;;;;;;;;;;;;;;23.37;32.62;95953.69;5071927;28;20390;-70
2023/06/16 09:27:43;;;;;;;;;;;;;;;22.90;33.44;95964.19;5070145;28;19935;-71
2023/06/16 09:30:11;;;;;;;;;;;;;;;22.75;33.10;95964.06;5070806;28;19929;-71
2023/06/16 09:32:37;;;;;;;;;;;;;;;23.26;34.07;95951.44;5072576;28;19982;-71
2023/06/16 09:35:14;;;;;;;;;;;;;;;23.50;32.36;95952.31;5073554;28;20022;-71
2023/06/16 09:37:41;;;;;;;;;;;;;;;23.91;32.11;95951.13;5073610;28;19928;-70
2023/06/16 09:40:10;;;;;;;;;;;;;;;23.24;31.91;95957.88;5073307;28;19970;-71
2023/06/16 09:42:37;;;;;;;;;;;;;;;23.19;33.27;95963.66;5068871;28;19928;-72
2023/06/16 09:45:08;;;;;;;;;;;;;;;23.83;32.49;95947.72;5074742;28;20310;-72
2023/06/16 09:47:34;;;;;;;;;;;;;;;23.46;32.46;95949.19;5069308;28;19924;-72
2023/06/16 09:50:00;;;;;;;;;;;;;;;23.64;32.69;95954.25;5068812;28;19951;-71
2023/06/16 09:52:27;;;;;;;;;;;;;;;23.39;33.57;95951.69;5073476;28;19929;-72
2023/06/16 09:54:54;;;;;;;;;;;;;;;23.71;31.81;95949.94;5072838;28;19928;-72
2023/06/16 09:57:22;;;;;;;;;;;;;;;23.69;32.39;95954.56;5072606;28;19974;-72
2023/06/16 09:59:49;;;;;;;;;;;;;;;23.74;30.91;95954.88;5072274;28;19932;-72
2023/06/16 10:02:15;;;;;;;;;;;;;;;23.57;31.75;95946.16;5072175;28;19928;-72
2023/06/16 10:04:43;;;;;;;;;;;;;;;23.37;30.96;95948.41;5071851;28;19939;-72
2023/06/16 10:07:09;;;;;;;;;;;;;;;23.48;31.25;95939.28;5071084;28;19928;-72
2023/06/16 10:09:44;;;;;;;;;;;;;;;23.10;32.93;95943.53;5072160;28;20670;-72
2023/06/16 10:12:11;;;;;;;;;;;;;;;22.53;33.62;95948.91;5072263;28;19928;-71
2023/06/16 10:14:40;;;;;;;;;;;;;;;22.43;34.92;95952.53;5070708;28;19924;-70
2023/06/16 10:17:07;;;;;;;;;;;;;;;22.57;33.87;95951.03;5072256;28;19935;-70
2023/06/16 10:19:36;;;;;;;;;;;;;;;22.68;32.34;95945.41;5069943;28;19925;-71
2023/06/16 10:22:03;;;;;;;;;;;;;;;22.98;32.51;95950.19;5067108;28;19924;-71
2023/06/16 10:24:31;;;;;;;;;;;;;;;23.05;33.50;95945.88;5071540;28;19962;-71
2023/06/16 10:26:57;;;;;;;;;;;;;;;22.99;32.04;95949.19;5064039;28;19936;-71
2023/06/16 10:29:25;;;;;;;;;;;;;;;23.36;31.21;95949.41;5065566;28;19924;-71
2023/06/16 10:32:02;;;;;;;;;;;;;;;23.94;31.56;95942.03;5068631;28;19929;-71
2023/06/16 10:34:28;;;;;;;;;;;;;;;23.73;33.36;95941.81;5071055;28;19925;-71
2023/06/16 10:36:54;;;;;;;;;;;;;;;23.56;32.15;95947.19;5060761;28;19959;-71
2023/06/16 10:39:21;;;;;;;;;;;;;;;22.58;32.41;95946.56;5068907;28;19928;-71
2023/06/16 10:41:51;;;;;;;;;;;;;;;23.04;33.04;95945.06;5068912;28;19932;-71
2023/06/16 10:44:21;;;;;;;;;;;;;;;23.04;32.79;95947.69;5071798;28;20015;-71
2023/06/16 10:47:03;;;;;;;;;;;;;;;23.08;32.28;95943.72;5067707;28;19978;-73
2023/06/16 10:49:30;;;;;;;;;;;;;;;23.23;32.43;95935.09;5067818;28;19932;-72
2023/06/16 10:51:58;;;;;;;;;;;;;;;23.24;32.01;95936.72;5068538;28;19983;-72
2023/06/16 10:54:44;;;;;;;;;;;;;;;23.18;30.95;95939.06;5071663;28;19931;-72
2023/06/16 10:57:12;;;;;;;;;;;;;;;23.48;31.25;95952.50;5070822;28;19973;-72
2023/06/16 10:59:54;;;;;;;;;;;;;;;23.52;31.17;95943.22;5066562;28;20371;-70
2023/06/16 11:02:22;;;;;;;;;;;;;;;23.46;30.61;95949.19;5067403;28;20007;-71
2023/06/16 11:05:04;;;;;;;;;;;;;;;23.41;31.32;95936.50;5070020;28;19925;-71
2023/06/16 11:07:32;;;;;;;;;;;;;;;23.78;32.08;95937.69;5069026;28;19935;-71
2023/06/16 11:09:58;;;;;;;;;;;;;;;24.18;31.23;95934.91;5067140;28;19925;-71
2023/06/16 11:12:25;;;;;;;;;;;;;;;23.82;30.14;95941.63;5069715;28;19931;-71
2023/06/16 11:14:52;;;;;;;;;;;;;;;23.99;30.40;95945.00;5066172;28;19974;-73
2023/06/16 11:17:19;;;;;;;;;;;;;;;24.35;29.34;95944.41;5068597;28;19928;-71
2023/06/16 11:19:50;;;;;;;;;;;;;;;23.65;28.65;95947.94;5070952;28;19924;-71
2023/06/16 11:22:17;;;;;;;;;;;;;;;23.89;30.85;95949.69;5071036;28;19962;-71
2023/06/16 11:24:44;;;;;;;;;;;;;;;24.39;30.99;95938.59;5065020;28;20390;-71
2023/06/16 11:27:12;;;;;;;;;;;;;;;23.76;30.88;95931.72;5068779;28;19963;-71
2023/06/16 11:29:39;;;;;;;;;;;;;;;24.23;30.43;95945.81;5068826;28;19955;-71
2023/06/16 11:32:06;;;;;;;;;;;;;;;24.04;30.23;95942.63;5067374;28;19942;-72
2023/06/16 11:34:32;;;;;;;;;;;;;;;24.15;32.12;95936.13;5070831;28;19968;-71
2023/06/16 11:36:59;;;;;;;;;;;;;;;23.79;30.07;95936.66;5068489;28;20012;-71
2023/06/16 11:39:25;;;;;;;;;;;;;;;23.39;30.94;95933.19;5070360;28;20018;-71
2023/06/16 11:41:56;;;;;;;;;;;;;;;23.69;29.60;95937.88;5070326;28;20018;-72
2023/06/16 11:44:22;;;;;;;;;;;;;;;23.55;29.40;95936.78;5070866;28;20019;-71
2023/06/16 11:46:48;;;;;;;;;;;;;;;23.54;29.75;95935.94;5069347;28;19931;-71
2023/06/16 11:49:15;;;;;;;;;;;;;;;23.31;30.39;95933.22;5070605;28;20337;-71
2023/06/16 11:51:42;;;;;;;;;;;;;;;23.39;31.80;95916.50;5068373;28;19929;-71
2023/06/16 11:54:09;;;;;;;;;;;;;;;23.93;32.53;95927.19;5070610;28;19924;-71
2023/06/16 11:56:35;;;;;;;;;;;;;;;23.78;30.85;95929.75;5070920;28;19924;-72
2023/06/16 11:59:04;;;;;;;;;;;;;;;24.02;31.41;95928.75;5070417;28;19932;-72
2023/06/16 12:01:30;;;;;;;;;;;;;;;23.80;32.28;95930.38;5070760;28;20341;-72
2023/06/16 12:03:57;;;;;;;;;;;;;;;24.07;31.91;95929.06;5068133;28;19935;-72
2023/06/16 12:06:24;;;;;;;;;;;;;;;24.21;30.47;95929.28;5065159;28;20360;-72
2023/06/16 12:08:54;;;;;;;;;;;;;;;23.89;30.94;95924.06;5064708;28;19928;-72
2023/06/16 12:11:27;;;;;;;;;;;;;;;23.84;30.05;95928.22;5071044;28;19925;-72
2023/06/16 12:13:54;;;;;;;;;;;;;;;23.78;30.64;95923.63;5056430;28;19925;-71
2023/06/16 12:16:22;;;;;;;;;;;;;;;23.90;29.88;95923.03;5066633;28;19936;-72
2023/06/16 12:18:49;;;;;;;;;;;;;;;24.21;31.20;95919.50;5068021;28;19928;-72
2023/06/16 12:21:16;;;;;;;;;;;;;;;24.25;29.79;95926.13;5067827;28;19928;-72
2023/06/16 12:23:47;;;;;;;;;;;;;;;24.51;30.08;95914.34;5066543;28;19933;-72
2023/06/16 12:26:24;;;;;;;;;;;;;;;24.32;29.78;95905.88;5067058;28;19924;-72
2023/06/16 12:28:52;;;;;;;;;;;;;;;24.13;29.40;95909.00;5068056;28;19978;-73
2023/06/16 12:31:19;;;;;;;;;;;;;;;23.80;31.13;95916.34;5072434;28;20382;-72
2023/06/16 12:33:50;;;;;;;;;;;;;;;23.73;31.10;95910.09;5070025;28;19924;-72
2023/06/16 12:36:16;;;;;;;;;;;;;;;24.03;30.48;95909.25;5073264;28;19997;-72
2023/06/16 12:38:42;;;;;;;;;;;;;;;24.15;31.15;95905.19;5069316;28;20306;-72
2023/06/16 12:41:11;;;;;;;;;;;;;;;24.40;31.20;95897.09;5071913;28;19928;-72
2023/06/16 12:43:45;;;;;;;;;;;;;;;24.07;30.47;95907.09;5072911;28;19966;-72
2023/06/16 12:46:12;;;;;;;;;;;;;;;24.29;29.74;95903.59;5074528;28;20023;-73